sensor_id;sensor_type;location;lat;lon;timestamp;P1;durP1;ratioP1;P2;durP2;ratioP2
15516;SDS011;7860;52.030;5.572;2022-08-19T00:06:02;15.60;;;10.48;;
15516;SDS011;7860;52.030;5.572;2022-08-19T00:07:02;15.83;;;9.60;;
15516;SDS011;7860;52.030;5.572;2022-08-19T00:08:02;15.76;;;10.28;;
15516;SDS011;7860;52.030;5.572;2022-08-19T00:09:03;16.05;;;10.26;;
15516;SDS011;7860;52.030;5.572;2022-08-19T00:10:03;14.32;;;9.58;;
15516;SDS011;7860;52.030;5.572;2022-08-19T00:11:03;15.46;;;10.44;;
15516;SDS011;7860;52.030;5.572;2022-08-19T00:12:03;14.30;;;10.14;;
15516;SDS011;7860;52.030;5.572;2022-08-19T00:13:03;16.85;;;10.04;;
15516;SDS011;7860;52.030;5.572;2022-08-19T00:14:03;14.96;;;10.30;;
15516;SDS011;7860;52.030;5.572;2022-08-19T00:15:04;14.84;;;10.75;;
15516;SDS011;7860;52.030;5.572;2022-08-19T00:16:04;15.85;;;10.43;;
15516;SDS011;7860;52.030;5.572;2022-08-19T00:17:03;15.97;;;10.48;;
15516;SDS011;7860;52.030;5.572;2022-08-19T00:18:03;15.65;;;10.56;;
15516;SDS011;7860;52.030;5.572;2022-08-19T00:19:03;16.11;;;10.32;;
15516;SDS011;7860;52.030;5.572;2022-08-19T00:20:04;15.16;;;10.03;;
15516;SDS011;7860;52.030;5.572;2022-08-19T00:21:03;17.28;;;10.50;;
15516;SDS011;7860;52.030;5.572;2022-08-19T00:22:03;16.13;;;10.57;;
15516;SDS011;7860;52.030;5.572;2022-08-19T00:23:03;14.26;;;9.83;;
15516;SDS011;7860;52.030;5.572;2022-08-19T00:24:03;16.30;;;10.09;;
15516;SDS011;7860;52.030;5.572;2022-08-19T00:25:04;14.44;;;9.89;;
15516;SDS011;7860;52.030;5.572;2022-08-19T00:26:04;14.28;;;9.50;;
15516;SDS011;7860;52.030;5.572;2022-08-19T00:27:04;15.97;;;10.55;;
15516;SDS011;7860;52.030;5.572;2022-08-19T00:28:04;15.29;;;9.58;;
15516;SDS011;7860;52.030;5.572;2022-08-19T00:29:04;14.40;;;9.68;;
15516;SDS011;7860;52.030;5.572;2022-08-19T00:30:05;15.34;;;9.28;;
15516;SDS011;7860;52.030;5.572;2022-08-19T00:31:04;14.94;;;9.62;;
15516;SDS011;7860;52.030;5.572;2022-08-19T00:32:04;13.83;;;9.32;;
15516;SDS011;7860;52.030;5.572;2022-08-19T00:33:04;14.23;;;9.15;;
15516;SDS011;7860;52.030;5.572;2022-08-19T00:34:04;13.66;;;9.47;;
15516;SDS011;7860;52.030;5.572;2022-08-19T00:35:04;14.06;;;9.60;;
15516;SDS011;7860;52.030;5.572;2022-08-19T00:36:05;13.32;;;9.67;;
15516;SDS011;7860;52.030;5.572;2022-08-19T00:37:04;13.94;;;9.70;;
15516;SDS011;7860;52.030;5.572;2022-08-19T00:38:04;15.66;;;9.47;;
15516;SDS011;7860;52.030;5.572;2022-08-19T00:39:04;14.47;;;10.28;;
15516;SDS011;7860;52.030;5.572;2022-08-19T00:40:05;13.13;;;9.01;;
15516;SDS011;7860;52.030;5.572;2022-08-19T00:41:05;14.14;;;9.95;;
15516;SDS011;7860;52.030;5.572;2022-08-19T00:42:04;15.04;;;9.80;;
15516;SDS011;7860;52.030;5.572;2022-08-19T00:43:07;14.32;;;9.98;;
15516;SDS011;7860;52.030;5.572;2022-08-19T00:44:06;15.30;;;9.77;;
15516;SDS011;7860;52.030;5.572;2022-08-19T00:45:09;13.03;;;9.00;;
15516;SDS011;7860;52.030;5.572;2022-08-19T00:46:05;14.61;;;9.83;;
15516;SDS011;7860;52.030;5.572;2022-08-19T00:47:05;13.78;;;9.65;;
15516;SDS011;7860;52.030;5.572;2022-08-19T00:48:05;13.85;;;9.49;;
15516;SDS011;7860;52.030;5.572;2022-08-19T00:49:06;12.59;;;8.49;;
15516;SDS011;7860;52.030;5.572;2022-08-19T00:50:05;16.08;;;10.09;;
15516;SDS011;7860;52.030;5.572;2022-08-19T00:51:05;14.29;;;8.98;;
15516;SDS011;7860;52.030;5.572;2022-08-19T00:52:06;13.23;;;8.38;;
15516;SDS011;7860;52.030;5.572;2022-08-19T00:53:05;14.54;;;9.96;;
15516;SDS011;7860;52.030;5.572;2022-08-19T00:54:05;14.21;;;9.59;;
15516;SDS011;7860;52.030;5.572;2022-08-19T00:55:06;14.78;;;9.44;;
15516;SDS011;7860;52.030;5.572;2022-08-19T00:56:05;13.85;;;9.53;;
15516;SDS011;7860;52.030;5.572;2022-08-19T00:57:09;13.72;;;9.51;;
15516;SDS011;7860;52.030;5.572;2022-08-19T00:58:07;14.64;;;9.39;;
15516;SDS011;7860;52.030;5.572;2022-08-19T00:59:05;14.02;;;9.15;;
15516;SDS011;7860;52.030;5.572;2022-08-19T01:00:07;11.93;;;8.38;;
15516;SDS011;7860;52.030;5.572;2022-08-19T01:01:06;13.75;;;9.76;;
15516;SDS011;7860;52.030;5.572;2022-08-19T01:02:06;13.18;;;8.95;;
15516;SDS011;7860;52.030;5.572;2022-08-19T01:03:07;11.31;;;8.20;;
15516;SDS011;7860;52.030;5.572;2022-08-19T01:04:06;14.58;;;9.43;;
15516;SDS011;7860;52.030;5.572;2022-08-19T01:05:08;14.64;;;9.24;;
15516;SDS011;7860;52.030;5.572;2022-08-19T01:06:06;14.14;;;8.93;;
15516;SDS011;7860;52.030;5.572;2022-08-19T01:07:06;14.51;;;9.38;;
15516;SDS011;7860;52.030;5.572;2022-08-19T01:08:06;13.88;;;9.41;;
15516;SDS011;7860;52.030;5.572;2022-08-19T01:09:06;15.23;;;9.74;;
15516;SDS011;7860;52.030;5.572;2022-08-19T01:10:07;14.89;;;9.43;;
15516;SDS011;7860;52.030;5.572;2022-08-19T01:11:06;13.29;;;9.11;;
15516;SDS011;7860;52.030;5.572;2022-08-19T01:12:06;14.43;;;9.71;;
15516;SDS011;7860;52.030;5.572;2022-08-19T01:13:07;15.32;;;9.89;;
15516;SDS011;7860;52.030;5.572;2022-08-19T01:14:07;15.10;;;9.37;;
15516;SDS011;7860;52.030;5.572;2022-08-19T01:15:08;13.79;;;8.41;;
15516;SDS011;7860;52.030;5.572;2022-08-19T01:16:08;13.94;;;8.99;;
15516;SDS011;7860;52.030;5.572;2022-08-19T01:17:07;13.32;;;8.40;;
15516;SDS011;7860;52.030;5.572;2022-08-19T01:18:08;12.31;;;8.10;;
15516;SDS011;7860;52.030;5.572;2022-08-19T01:19:09;13.79;;;8.91;;
15516;SDS011;7860;52.030;5.572;2022-08-19T01:20:09;13.67;;;8.95;;
15516;SDS011;7860;52.030;5.572;2022-08-19T01:21:09;13.18;;;8.18;;
15516;SDS011;7860;52.030;5.572;2022-08-19T01:22:08;14.45;;;8.94;;
15516;SDS011;7860;52.030;5.572;2022-08-19T01:23:07;14.17;;;8.97;;
15516;SDS011;7860;52.030;5.572;2022-08-19T01:24:07;12.40;;;8.66;;
15516;SDS011;7860;52.030;5.572;2022-08-19T01:25:07;12.01;;;7.97;;
15516;SDS011;7860;52.030;5.572;2022-08-19T01:26:08;11.92;;;7.87;;
15516;SDS011;7860;52.030;5.572;2022-08-19T01:27:07;12.21;;;8.46;;
15516;SDS011;7860;52.030;5.572;2022-08-19T01:28:07;13.87;;;8.79;;
15516;SDS011;7860;52.030;5.572;2022-08-19T01:29:08;13.43;;;8.43;;
15516;SDS011;7860;52.030;5.572;2022-08-19T01:30:08;13.64;;;9.36;;
15516;SDS011;7860;52.030;5.572;2022-08-19T01:31:08;13.10;;;8.19;;
15516;SDS011;7860;52.030;5.572;2022-08-19T01:32:09;13.52;;;8.79;;
15516;SDS011;7860;52.030;5.572;2022-08-19T01:33:08;13.27;;;8.28;;
15516;SDS011;7860;52.030;5.572;2022-08-19T01:34:08;13.34;;;8.60;;
15516;SDS011;7860;52.030;5.572;2022-08-19T01:35:08;14.24;;;8.80;;
15516;SDS011;7860;52.030;5.572;2022-08-19T01:36:09;13.01;;;8.72;;
15516;SDS011;7860;52.030;5.572;2022-08-19T01:37:09;12.88;;;8.81;;
15516;SDS011;7860;52.030;5.572;2022-08-19T01:38:09;10.73;;;7.01;;
15516;SDS011;7860;52.030;5.572;2022-08-19T01:39:10;14.26;;;8.37;;
15516;SDS011;7860;52.030;5.572;2022-08-19T01:40:09;12.25;;;8.38;;
15516;SDS011;7860;52.030;5.572;2022-08-19T01:41:08;12.26;;;8.20;;
15516;SDS011;7860;52.030;5.572;2022-08-19T01:42:08;14.60;;;7.65;;
15516;SDS011;7860;52.030;5.572;2022-08-19T01:43:08;12.77;;;8.41;;
15516;SDS011;7860;52.030;5.572;2022-08-19T01:44:09;12.42;;;8.60;;
15516;SDS011;7860;52.030;5.572;2022-08-19T01:45:09;12.81;;;8.52;;
15516;SDS011;7860;52.030;5.572;2022-08-19T01:46:09;13.28;;;8.44;;
15516;SDS011;7860;52.030;5.572;2022-08-19T01:47:08;14.05;;;8.74;;
15516;SDS011;7860;52.030;5.572;2022-08-19T01:48:09;12.32;;;8.73;;
15516;SDS011;7860;52.030;5.572;2022-08-19T01:49:09;12.80;;;8.48;;
15516;SDS011;7860;52.030;5.572;2022-08-19T01:50:09;12.88;;;8.63;;
15516;SDS011;7860;52.030;5.572;2022-08-19T01:51:09;12.99;;;8.19;;
15516;SDS011;7860;52.030;5.572;2022-08-19T01:52:09;12.80;;;8.15;;
15516;SDS011;7860;52.030;5.572;2022-08-19T01:53:09;12.19;;;8.81;;
15516;SDS011;7860;52.030;5.572;2022-08-19T01:54:09;12.14;;;8.07;;
15516;SDS011;7860;52.030;5.572;2022-08-19T01:55:10;14.41;;;8.86;;
15516;SDS011;7860;52.030;5.572;2022-08-19T01:56:09;12.87;;;8.52;;
15516;SDS011;7860;52.030;5.572;2022-08-19T01:57:10;16.31;;;9.27;;
15516;SDS011;7860;52.030;5.572;2022-08-19T01:58:10;14.77;;;8.56;;
15516;SDS011;7860;52.030;5.572;2022-08-19T01:59:11;13.11;;;8.68;;
15516;SDS011;7860;52.030;5.572;2022-08-19T02:00:11;14.82;;;8.83;;
15516;SDS011;7860;52.030;5.572;2022-08-19T02:01:09;13.17;;;8.79;;
15516;SDS011;7860;52.030;5.572;2022-08-19T02:02:09;12.90;;;8.55;;
15516;SDS011;7860;52.030;5.572;2022-08-19T02:03:09;14.27;;;9.03;;
15516;SDS011;7860;52.030;5.572;2022-08-19T02:04:10;15.03;;;9.40;;
15516;SDS011;7860;52.030;5.572;2022-08-19T02:05:10;13.90;;;8.64;;
15516;SDS011;7860;52.030;5.572;2022-08-19T02:06:10;14.01;;;8.97;;
15516;SDS011;7860;52.030;5.572;2022-08-19T02:07:10;13.51;;;8.60;;
15516;SDS011;7860;52.030;5.572;2022-08-19T02:08:10;13.94;;;8.77;;
15516;SDS011;7860;52.030;5.572;2022-08-19T02:09:10;14.14;;;8.82;;
15516;SDS011;7860;52.030;5.572;2022-08-19T02:10:11;14.18;;;8.92;;
15516;SDS011;7860;52.030;5.572;2022-08-19T02:11:17;13.38;;;8.33;;
15516;SDS011;7860;52.030;5.572;2022-08-19T02:12:10;13.43;;;8.55;;
15516;SDS011;7860;52.030;5.572;2022-08-19T02:13:10;15.53;;;9.29;;
15516;SDS011;7860;52.030;5.572;2022-08-19T02:14:10;13.48;;;8.57;;
15516;SDS011;7860;52.030;5.572;2022-08-19T02:15:11;13.07;;;8.25;;
15516;SDS011;7860;52.030;5.572;2022-08-19T02:16:10;12.46;;;8.17;;
15516;SDS011;7860;52.030;5.572;2022-08-19T02:17:10;13.60;;;8.71;;
15516;SDS011;7860;52.030;5.572;2022-08-19T02:18:10;12.98;;;8.07;;
15516;SDS011;7860;52.030;5.572;2022-08-19T02:19:10;13.00;;;8.36;;
15516;SDS011;7860;52.030;5.572;2022-08-19T02:20:11;13.07;;;7.45;;
15516;SDS011;7860;52.030;5.572;2022-08-19T02:21:11;11.82;;;7.63;;
15516;SDS011;7860;52.030;5.572;2022-08-19T02:22:11;11.17;;;7.32;;
15516;SDS011;7860;52.030;5.572;2022-08-19T02:23:11;11.14;;;7.69;;
15516;SDS011;7860;52.030;5.572;2022-08-19T02:24:11;12.23;;;7.50;;
15516;SDS011;7860;52.030;5.572;2022-08-19T02:25:12;11.90;;;7.38;;
15516;SDS011;7860;52.030;5.572;2022-08-19T02:26:12;12.62;;;8.17;;
15516;SDS011;7860;52.030;5.572;2022-08-19T02:27:12;12.86;;;8.21;;
15516;SDS011;7860;52.030;5.572;2022-08-19T02:28:12;11.81;;;7.24;;
15516;SDS011;7860;52.030;5.572;2022-08-19T02:29:12;13.55;;;7.78;;
15516;SDS011;7860;52.030;5.572;2022-08-19T02:30:13;13.28;;;8.28;;
15516;SDS011;7860;52.030;5.572;2022-08-19T02:31:13;14.23;;;8.63;;
15516;SDS011;7860;52.030;5.572;2022-08-19T02:32:12;12.95;;;7.65;;
15516;SDS011;7860;52.030;5.572;2022-08-19T02:33:12;12.44;;;7.87;;
15516;SDS011;7860;52.030;5.572;2022-08-19T02:34:12;13.16;;;7.04;;
15516;SDS011;7860;52.030;5.572;2022-08-19T02:35:13;12.90;;;7.81;;
15516;SDS011;7860;52.030;5.572;2022-08-19T02:36:13;13.07;;;7.66;;
15516;SDS011;7860;52.030;5.572;2022-08-19T02:37:12;13.87;;;8.16;;
15516;SDS011;7860;52.030;5.572;2022-08-19T02:38:13;13.41;;;7.73;;
15516;SDS011;7860;52.030;5.572;2022-08-19T02:39:12;14.81;;;8.54;;
15516;SDS011;7860;52.030;5.572;2022-08-19T02:40:13;13.55;;;7.48;;
15516;SDS011;7860;52.030;5.572;2022-08-19T02:41:14;13.72;;;7.67;;
15516;SDS011;7860;52.030;5.572;2022-08-19T02:42:13;13.74;;;7.41;;
15516;SDS011;7860;52.030;5.572;2022-08-19T02:43:13;14.03;;;7.82;;
15516;SDS011;7860;52.030;5.572;2022-08-19T02:44:13;12.47;;;7.18;;
15516;SDS011;7860;52.030;5.572;2022-08-19T02:45:13;12.22;;;7.10;;
15516;SDS011;7860;52.030;5.572;2022-08-19T02:46:14;12.79;;;7.49;;
15516;SDS011;7860;52.030;5.572;2022-08-19T02:47:13;12.88;;;7.74;;
15516;SDS011;7860;52.030;5.572;2022-08-19T02:48:13;12.35;;;7.70;;
15516;SDS011;7860;52.030;5.572;2022-08-19T02:49:13;14.02;;;8.24;;
15516;SDS011;7860;52.030;5.572;2022-08-19T02:50:13;11.58;;;7.95;;
15516;SDS011;7860;52.030;5.572;2022-08-19T02:51:15;12.62;;;7.99;;
15516;SDS011;7860;52.030;5.572;2022-08-19T02:52:13;12.48;;;7.51;;
15516;SDS011;7860;52.030;5.572;2022-08-19T02:53:13;13.14;;;7.39;;
15516;SDS011;7860;52.030;5.572;2022-08-19T02:54:14;10.66;;;6.52;;
15516;SDS011;7860;52.030;5.572;2022-08-19T02:55:13;13.33;;;6.97;;
15516;SDS011;7860;52.030;5.572;2022-08-19T02:56:13;11.44;;;7.12;;
15516;SDS011;7860;52.030;5.572;2022-08-19T02:57:13;10.38;;;6.65;;
15516;SDS011;7860;52.030;5.572;2022-08-19T02:58:14;11.94;;;6.61;;
15516;SDS011;7860;52.030;5.572;2022-08-19T02:59:14;12.74;;;7.05;;
15516;SDS011;7860;52.030;5.572;2022-08-19T03:00:14;10.61;;;6.53;;
15516;SDS011;7860;52.030;5.572;2022-08-19T03:01:19;11.74;;;7.10;;
15516;SDS011;7860;52.030;5.572;2022-08-19T03:02:14;12.29;;;7.39;;
15516;SDS011;7860;52.030;5.572;2022-08-19T03:03:14;13.77;;;7.12;;
15516;SDS011;7860;52.030;5.572;2022-08-19T03:04:15;12.96;;;7.50;;
15516;SDS011;7860;52.030;5.572;2022-08-19T03:05:14;13.59;;;7.55;;
15516;SDS011;7860;52.030;5.572;2022-08-19T03:06:14;12.02;;;7.12;;
15516;SDS011;7860;52.030;5.572;2022-08-19T03:07:14;12.73;;;7.26;;
15516;SDS011;7860;52.030;5.572;2022-08-19T03:08:14;12.46;;;7.35;;
15516;SDS011;7860;52.030;5.572;2022-08-19T03:09:14;12.84;;;7.91;;
15516;SDS011;7860;52.030;5.572;2022-08-19T03:10:14;12.11;;;7.50;;
15516;SDS011;7860;52.030;5.572;2022-08-19T03:11:15;12.24;;;7.46;;
15516;SDS011;7860;52.030;5.572;2022-08-19T03:12:14;11.82;;;7.41;;
15516;SDS011;7860;52.030;5.572;2022-08-19T03:13:15;12.54;;;7.55;;
15516;SDS011;7860;52.030;5.572;2022-08-19T03:14:14;11.84;;;6.68;;
15516;SDS011;7860;52.030;5.572;2022-08-19T03:15:15;12.52;;;7.75;;
15516;SDS011;7860;52.030;5.572;2022-08-19T03:16:15;11.15;;;7.31;;
15516;SDS011;7860;52.030;5.572;2022-08-19T03:17:15;12.76;;;7.71;;
15516;SDS011;7860;52.030;5.572;2022-08-19T03:18:15;13.77;;;8.08;;
15516;SDS011;7860;52.030;5.572;2022-08-19T03:19:15;11.97;;;7.64;;
15516;SDS011;7860;52.030;5.572;2022-08-19T03:20:15;12.15;;;7.54;;
15516;SDS011;7860;52.030;5.572;2022-08-19T03:21:15;14.31;;;8.06;;
15516;SDS011;7860;52.030;5.572;2022-08-19T03:22:15;13.09;;;8.21;;
15516;SDS011;7860;52.030;5.572;2022-08-19T03:23:15;14.81;;;8.17;;
15516;SDS011;7860;52.030;5.572;2022-08-19T03:24:16;13.67;;;8.37;;
15516;SDS011;7860;52.030;5.572;2022-08-19T03:25:15;13.80;;;8.54;;
15516;SDS011;7860;52.030;5.572;2022-08-19T03:26:15;13.79;;;7.83;;
15516;SDS011;7860;52.030;5.572;2022-08-19T03:27:15;12.81;;;7.89;;
15516;SDS011;7860;52.030;5.572;2022-08-19T03:28:15;12.25;;;7.81;;
15516;SDS011;7860;52.030;5.572;2022-08-19T03:29:16;12.36;;;7.60;;
15516;SDS011;7860;52.030;5.572;2022-08-19T03:30:15;10.95;;;7.49;;
15516;SDS011;7860;52.030;5.572;2022-08-19T03:31:16;13.51;;;8.19;;
15516;SDS011;7860;52.030;5.572;2022-08-19T03:32:16;12.76;;;8.08;;
15516;SDS011;7860;52.030;5.572;2022-08-19T03:33:16;12.11;;;7.77;;
15516;SDS011;7860;52.030;5.572;2022-08-19T03:34:18;12.65;;;7.63;;
15516;SDS011;7860;52.030;5.572;2022-08-19T03:35:16;13.11;;;7.37;;
15516;SDS011;7860;52.030;5.572;2022-08-19T03:36:17;14.13;;;8.06;;
15516;SDS011;7860;52.030;5.572;2022-08-19T03:37:16;12.99;;;7.93;;
15516;SDS011;7860;52.030;5.572;2022-08-19T03:38:16;14.34;;;8.54;;
15516;SDS011;7860;52.030;5.572;2022-08-19T03:39:16;13.64;;;7.97;;
15516;SDS011;7860;52.030;5.572;2022-08-19T03:40:16;13.49;;;8.28;;
15516;SDS011;7860;52.030;5.572;2022-08-19T03:41:17;12.12;;;7.63;;
15516;SDS011;7860;52.030;5.572;2022-08-19T03:42:16;13.60;;;8.61;;
15516;SDS011;7860;52.030;5.572;2022-08-19T03:43:16;12.99;;;7.56;;
15516;SDS011;7860;52.030;5.572;2022-08-19T03:44:17;13.05;;;8.13;;
15516;SDS011;7860;52.030;5.572;2022-08-19T03:45:16;13.24;;;7.86;;
15516;SDS011;7860;52.030;5.572;2022-08-19T03:46:17;12.70;;;7.55;;
15516;SDS011;7860;52.030;5.572;2022-08-19T03:47:16;12.39;;;7.30;;
15516;SDS011;7860;52.030;5.572;2022-08-19T03:48:16;13.09;;;7.78;;
15516;SDS011;7860;52.030;5.572;2022-08-19T03:49:17;13.39;;;7.46;;
15516;SDS011;7860;52.030;5.572;2022-08-19T03:50:17;12.27;;;8.05;;
15516;SDS011;7860;52.030;5.572;2022-08-19T03:51:17;12.46;;;7.57;;
15516;SDS011;7860;52.030;5.572;2022-08-19T03:52:17;11.63;;;6.85;;
15516;SDS011;7860;52.030;5.572;2022-08-19T03:53:17;11.79;;;6.98;;
15516;SDS011;7860;52.030;5.572;2022-08-19T03:54:18;10.24;;;6.48;;
15516;SDS011;7860;52.030;5.572;2022-08-19T03:55:17;10.12;;;6.76;;
15516;SDS011;7860;52.030;5.572;2022-08-19T03:56:17;11.57;;;6.49;;
15516;SDS011;7860;52.030;5.572;2022-08-19T03:57:17;12.93;;;6.42;;
15516;SDS011;7860;52.030;5.572;2022-08-19T03:58:17;11.47;;;6.26;;
15516;SDS011;7860;52.030;5.572;2022-08-19T03:59:19;12.10;;;7.24;;
15516;SDS011;7860;52.030;5.572;2022-08-19T04:00:17;12.94;;;6.18;;
15516;SDS011;7860;52.030;5.572;2022-08-19T04:01:18;13.33;;;7.03;;
15516;SDS011;7860;52.030;5.572;2022-08-19T04:02:17;11.38;;;6.38;;
15516;SDS011;7860;52.030;5.572;2022-08-19T04:03:17;14.62;;;6.48;;
15516;SDS011;7860;52.030;5.572;2022-08-19T04:04:17;10.75;;;5.72;;
15516;SDS011;7860;52.030;5.572;2022-08-19T04:05:18;10.29;;;5.88;;
15516;SDS011;7860;52.030;5.572;2022-08-19T04:06:19;10.97;;;5.53;;
15516;SDS011;7860;52.030;5.572;2022-08-19T04:07:18;11.25;;;5.39;;
15516;SDS011;7860;52.030;5.572;2022-08-19T04:08:18;12.98;;;5.67;;
15516;SDS011;7860;52.030;5.572;2022-08-19T04:09:18;12.68;;;5.97;;
15516;SDS011;7860;52.030;5.572;2022-08-19T04:10:18;11.33;;;5.93;;
15516;SDS011;7860;52.030;5.572;2022-08-19T04:11:20;14.59;;;6.03;;
15516;SDS011;7860;52.030;5.572;2022-08-19T04:12:18;10.02;;;5.72;;
15516;SDS011;7860;52.030;5.572;2022-08-19T04:13:18;11.95;;;6.30;;
15516;SDS011;7860;52.030;5.572;2022-08-19T04:14:20;10.56;;;5.70;;
15516;SDS011;7860;52.030;5.572;2022-08-19T04:15:18;10.46;;;5.41;;
15516;SDS011;7860;52.030;5.572;2022-08-19T04:16:18;11.64;;;5.34;;
15516;SDS011;7860;52.030;5.572;2022-08-19T04:17:19;10.44;;;5.56;;
15516;SDS011;7860;52.030;5.572;2022-08-19T04:18:19;9.73;;;5.33;;
15516;SDS011;7860;52.030;5.572;2022-08-19T04:19:20;10.30;;;5.55;;
15516;SDS011;7860;52.030;5.572;2022-08-19T04:20:19;9.65;;;5.39;;
15516;SDS011;7860;52.030;5.572;2022-08-19T04:21:20;12.09;;;5.86;;
15516;SDS011;7860;52.030;5.572;2022-08-19T04:22:19;9.74;;;5.62;;
15516;SDS011;7860;52.030;5.572;2022-08-19T04:23:20;9.06;;;5.63;;
15516;SDS011;7860;52.030;5.572;2022-08-19T04:24:20;10.89;;;5.49;;
15516;SDS011;7860;52.030;5.572;2022-08-19T04:25:20;9.30;;;5.37;;
15516;SDS011;7860;52.030;5.572;2022-08-19T04:26:21;9.27;;;5.42;;
15516;SDS011;7860;52.030;5.572;2022-08-19T04:27:20;10.32;;;6.25;;
15516;SDS011;7860;52.030;5.572;2022-08-19T04:28:20;13.97;;;6.17;;
15516;SDS011;7860;52.030;5.572;2022-08-19T04:29:21;12.63;;;6.82;;
15516;SDS011;7860;52.030;5.572;2022-08-19T04:30:20;10.55;;;5.86;;
15516;SDS011;7860;52.030;5.572;2022-08-19T04:31:21;11.99;;;6.37;;
15516;SDS011;7860;52.030;5.572;2022-08-19T04:32:20;10.68;;;6.31;;
15516;SDS011;7860;52.030;5.572;2022-08-19T04:33:21;11.58;;;6.75;;
15516;SDS011;7860;52.030;5.572;2022-08-19T04:34:21;11.61;;;6.54;;
15516;SDS011;7860;52.030;5.572;2022-08-19T04:35:20;11.65;;;6.99;;
15516;SDS011;7860;52.030;5.572;2022-08-19T04:36:22;11.15;;;6.69;;
15516;SDS011;7860;52.030;5.572;2022-08-19T04:37:20;12.81;;;6.64;;
15516;SDS011;7860;52.030;5.572;2022-08-19T04:38:21;12.32;;;6.49;;
15516;SDS011;7860;52.030;5.572;2022-08-19T04:39:23;12.03;;;6.97;;
15516;SDS011;7860;52.030;5.572;2022-08-19T04:40:20;13.51;;;6.68;;
15516;SDS011;7860;52.030;5.572;2022-08-19T04:41:21;13.66;;;6.86;;
15516;SDS011;7860;52.030;5.572;2022-08-19T04:42:21;11.85;;;6.60;;
15516;SDS011;7860;52.030;5.572;2022-08-19T04:43:21;13.76;;;7.16;;
15516;SDS011;7860;52.030;5.572;2022-08-19T04:44:21;13.75;;;6.73;;
15516;SDS011;7860;52.030;5.572;2022-08-19T04:45:21;11.68;;;6.81;;
15516;SDS011;7860;52.030;5.572;2022-08-19T04:46:21;12.23;;;6.57;;
15516;SDS011;7860;52.030;5.572;2022-08-19T04:47:21;12.76;;;6.81;;
15516;SDS011;7860;52.030;5.572;2022-08-19T04:48:21;11.78;;;6.82;;
15516;SDS011;7860;52.030;5.572;2022-08-19T04:49:21;12.87;;;7.42;;
15516;SDS011;7860;52.030;5.572;2022-08-19T04:50:21;11.85;;;7.03;;
15516;SDS011;7860;52.030;5.572;2022-08-19T04:51:21;12.98;;;7.18;;
15516;SDS011;7860;52.030;5.572;2022-08-19T04:52:21;11.65;;;7.03;;
15516;SDS011;7860;52.030;5.572;2022-08-19T04:53:21;13.58;;;7.92;;
15516;SDS011;7860;52.030;5.572;2022-08-19T04:54:22;13.18;;;7.53;;
15516;SDS011;7860;52.030;5.572;2022-08-19T04:55:21;14.90;;;8.88;;
15516;SDS011;7860;52.030;5.572;2022-08-19T04:56:22;16.39;;;8.75;;
15516;SDS011;7860;52.030;5.572;2022-08-19T04:57:22;15.34;;;9.04;;
15516;SDS011;7860;52.030;5.572;2022-08-19T04:58:23;12.93;;;8.28;;
15516;SDS011;7860;52.030;5.572;2022-08-19T04:59:23;14.25;;;8.77;;
15516;SDS011;7860;52.030;5.572;2022-08-19T05:00:23;14.68;;;9.18;;
15516;SDS011;7860;52.030;5.572;2022-08-19T05:01:24;14.54;;;8.52;;
15516;SDS011;7860;52.030;5.572;2022-08-19T05:02:23;14.70;;;8.38;;
15516;SDS011;7860;52.030;5.572;2022-08-19T05:03:23;13.86;;;7.91;;
15516;SDS011;7860;52.030;5.572;2022-08-19T05:04:23;15.07;;;8.40;;
15516;SDS011;7860;52.030;5.572;2022-08-19T05:05:23;14.28;;;8.26;;
15516;SDS011;7860;52.030;5.572;2022-08-19T05:06:23;13.65;;;8.69;;
15516;SDS011;7860;52.030;5.572;2022-08-19T05:07:23;15.25;;;8.63;;
15516;SDS011;7860;52.030;5.572;2022-08-19T05:08:23;13.54;;;8.02;;
15516;SDS011;7860;52.030;5.572;2022-08-19T05:09:23;12.07;;;7.51;;
15516;SDS011;7860;52.030;5.572;2022-08-19T05:10:23;12.91;;;7.77;;
15516;SDS011;7860;52.030;5.572;2022-08-19T05:11:25;13.48;;;8.01;;
15516;SDS011;7860;52.030;5.572;2022-08-19T05:12:23;12.75;;;7.92;;
15516;SDS011;7860;52.030;5.572;2022-08-19T05:13:23;13.74;;;8.08;;
15516;SDS011;7860;52.030;5.572;2022-08-19T05:14:24;15.11;;;9.05;;
15516;SDS011;7860;52.030;5.572;2022-08-19T05:15:24;14.89;;;8.79;;
15516;SDS011;7860;52.030;5.572;2022-08-19T05:16:24;14.58;;;9.13;;
15516;SDS011;7860;52.030;5.572;2022-08-19T05:17:24;14.46;;;8.81;;
15516;SDS011;7860;52.030;5.572;2022-08-19T05:18:24;13.16;;;8.53;;
15516;SDS011;7860;52.030;5.572;2022-08-19T05:19:24;13.59;;;8.25;;
15516;SDS011;7860;52.030;5.572;2022-08-19T05:20:24;15.74;;;8.50;;
15516;SDS011;7860;52.030;5.572;2022-08-19T05:21:24;14.73;;;8.72;;
15516;SDS011;7860;52.030;5.572;2022-08-19T05:22:24;15.21;;;8.56;;
15516;SDS011;7860;52.030;5.572;2022-08-19T05:23:24;13.06;;;7.96;;
15516;SDS011;7860;52.030;5.572;2022-08-19T05:24:24;13.35;;;9.00;;
15516;SDS011;7860;52.030;5.572;2022-08-19T05:25:24;16.26;;;8.30;;
15516;SDS011;7860;52.030;5.572;2022-08-19T05:26:24;13.97;;;8.17;;
15516;SDS011;7860;52.030;5.572;2022-08-19T05:27:24;13.42;;;8.70;;
15516;SDS011;7860;52.030;5.572;2022-08-19T05:28:24;13.77;;;8.53;;
15516;SDS011;7860;52.030;5.572;2022-08-19T05:29:25;18.86;;;9.47;;
15516;SDS011;7860;52.030;5.572;2022-08-19T05:30:25;12.85;;;8.46;;
15516;SDS011;7860;52.030;5.572;2022-08-19T05:31:25;13.66;;;8.20;;
15516;SDS011;7860;52.030;5.572;2022-08-19T05:32:25;13.50;;;8.26;;
15516;SDS011;7860;52.030;5.572;2022-08-19T05:33:25;14.52;;;9.10;;
15516;SDS011;7860;52.030;5.572;2022-08-19T05:34:25;14.99;;;8.81;;
15516;SDS011;7860;52.030;5.572;2022-08-19T05:35:28;14.09;;;8.50;;
15516;SDS011;7860;52.030;5.572;2022-08-19T05:36:25;13.38;;;8.21;;
15516;SDS011;7860;52.030;5.572;2022-08-19T05:37:25;16.65;;;9.09;;
15516;SDS011;7860;52.030;5.572;2022-08-19T05:38:25;14.35;;;8.94;;
15516;SDS011;7860;52.030;5.572;2022-08-19T05:39:26;17.15;;;8.48;;
15516;SDS011;7860;52.030;5.572;2022-08-19T05:40:26;14.12;;;8.36;;
15516;SDS011;7860;52.030;5.572;2022-08-19T05:41:25;13.50;;;8.22;;
15516;SDS011;7860;52.030;5.572;2022-08-19T05:42:25;12.86;;;7.78;;
15516;SDS011;7860;52.030;5.572;2022-08-19T05:43:25;16.07;;;8.83;;
15516;SDS011;7860;52.030;5.572;2022-08-19T05:44:26;16.92;;;9.52;;
15516;SDS011;7860;52.030;5.572;2022-08-19T05:45:25;15.40;;;9.41;;
15516;SDS011;7860;52.030;5.572;2022-08-19T05:46:26;13.13;;;8.47;;
15516;SDS011;7860;52.030;5.572;2022-08-19T05:47:26;14.08;;;8.37;;
15516;SDS011;7860;52.030;5.572;2022-08-19T05:48:26;12.44;;;8.13;;
15516;SDS011;7860;52.030;5.572;2022-08-19T05:49:26;13.07;;;8.67;;
15516;SDS011;7860;52.030;5.572;2022-08-19T05:50:26;12.39;;;7.77;;
15516;SDS011;7860;52.030;5.572;2022-08-19T05:51:26;11.77;;;7.19;;
15516;SDS011;7860;52.030;5.572;2022-08-19T05:52:26;11.05;;;7.10;;
15516;SDS011;7860;52.030;5.572;2022-08-19T05:53:26;12.04;;;7.15;;
15516;SDS011;7860;52.030;5.572;2022-08-19T05:54:26;10.87;;;6.67;;
15516;SDS011;7860;52.030;5.572;2022-08-19T05:55:26;12.47;;;7.27;;
15516;SDS011;7860;52.030;5.572;2022-08-19T05:56:26;12.51;;;7.23;;
15516;SDS011;7860;52.030;5.572;2022-08-19T05:57:26;12.10;;;6.93;;
15516;SDS011;7860;52.030;5.572;2022-08-19T05:58:26;12.29;;;7.08;;
15516;SDS011;7860;52.030;5.572;2022-08-19T05:59:27;13.58;;;7.49;;
15516;SDS011;7860;52.030;5.572;2022-08-19T06:00:27;13.20;;;7.32;;
15516;SDS011;7860;52.030;5.572;2022-08-19T06:01:27;13.24;;;7.98;;
15516;SDS011;7860;52.030;5.572;2022-08-19T06:02:27;13.04;;;8.23;;
15516;SDS011;7860;52.030;5.572;2022-08-19T06:03:27;12.55;;;7.90;;
15516;SDS011;7860;52.030;5.572;2022-08-19T06:04:27;12.80;;;7.44;;
15516;SDS011;7860;52.030;5.572;2022-08-19T06:05:27;14.37;;;9.66;;
15516;SDS011;7860;52.030;5.572;2022-08-19T06:06:27;13.14;;;7.72;;
15516;SDS011;7860;52.030;5.572;2022-08-19T06:07:27;12.78;;;7.70;;